Pumpkin Bend, Arkansas
Current Conditions -  °F | °C
As of 9:56 PM on Thursday 27 Nov 2014 (Local Time) from KM19 Reporting Station
Clear Clear  
Wind Chill: 29°   Ceiling: Unl
Heat Index: 33°   Visibility: 10mi
Dew Point: 30°   Wind: 5mph
Humidity: 89%   Direction: 180°S
Pressure: 30.47"   Gusts: NA
Location:  35.2139°N, 91.1509°W
Report Text: KM19 280356Z AUTO 18004KT 10SM CLR 01/M01 A3047 RMK AO2 T00051011 SLP319
Loading
Personal Weather Stations






























Interactive Weather Map New forecast layout! Learn more

10-Day Weather Forecast

Advertisements
Track Severe Weather on mobile